Time;durP1;ratioP1;P1;durP2;ratioP2;P2;SDS_P1;SDS_P2;PMS_P1;PMS_P2;Temp;Humidity;BMP_temperature;BMP_pressure;BME280_temperature;BME280_humidity;BME280_pressure;Samples;Min_cycle;Max_cycle;Signal;HPM_P1;HPM_P2
2023/06/16 00:00:14;;;;;;;7.65;5.10;;;;;;;23.32;58.91;98924.34;5090440;28;20020;-72
2023/06/16 00:02:41;;;;;;;6.63;4.80;;;;;;;23.58;59.27;98968.16;5091763;28;20020;-75
2023/06/16 00:05:12;;;;;;;6.72;4.47;;;;;;;23.42;59.67;98953.13;5090340;28;20020;-76
2023/06/16 00:07:38;;;;;;;9.25;5.43;;;;;;;23.45;60.64;98968.72;5091630;28;20027;-76
2023/06/16 00:10:07;;;;;;;8.30;5.00;;;;;;;23.09;60.35;98917.69;5091561;28;20039;-75
2023/06/16 00:12:34;;;;;;;7.20;5.07;;;;;;;23.36;60.61;98956.91;5091669;28;20028;-75
2023/06/16 00:15:00;;;;;;;8.30;5.05;;;;;;;23.17;60.83;98929.78;5091560;28;20390;-76
2023/06/16 00:17:26;;;;;;;7.72;5.28;;;;;;;23.39;61.33;98965.25;5090413;28;20026;-76
2023/06/16 00:19:57;;;;;;;6.60;4.75;;;;;;;23.36;60.98;98962.31;5091512;28;20024;-75
2023/06/16 00:22:25;;;;;;;6.32;5.03;;;;;;;23.35;61.28;98963.38;5091484;28;20020;-75
2023/06/16 00:24:52;;;;;;;9.18;4.95;;;;;;;23.30;60.97;98956.13;5091419;28;20051;-75
2023/06/16 00:27:17;;;;;;;7.63;4.78;;;;;;;23.28;61.14;98952.09;5091531;28;20051;-76
2023/06/16 00:29:42;;;;;;;5.40;4.90;;;;;;;22.85;61.12;98888.94;5091522;28;20016;-75
2023/06/16 00:32:08;;;;;;;6.40;4.60;;;;;;;23.20;61.51;98958.88;5091416;28;20081;-75
2023/06/16 00:34:33;;;;;;;7.20;4.93;;;;;;;23.07;61.08;98941.41;5090128;28;20035;-74
2023/06/16 00:36:59;;;;;;;6.43;4.95;;;;;;;22.73;61.10;98881.94;5091423;28;20103;-75
2023/06/16 00:39:24;;;;;;;8.90;6.00;;;;;;;23.08;61.18;98944.91;5092423;28;20114;-76
2023/06/16 00:41:49;;;;;;;5.22;4.72;;;;;;;23.07;60.87;98946.78;5095669;28;20059;-76
2023/06/16 00:44:15;;;;;;;5.50;4.95;;;;;;;23.03;60.66;98964.53;5095762;28;20110;-76
2023/06/16 00:46:41;;;;;;;5.95;5.28;;;;;;;22.62;60.56;98891.13;5094415;28;20020;-75
2023/06/16 00:49:06;;;;;;;6.20;5.38;;;;;;;22.80;61.19;98941.72;5094330;28;20111;-75
2023/06/16 00:51:32;;;;;;;5.97;5.22;;;;;;;22.90;61.12;98942.75;5094245;28;20082;-75
2023/06/16 00:53:59;;;;;;;6.47;4.60;;;;;;;22.78;60.79;98926.88;5095528;28;20020;-75
2023/06/16 00:56:25;;;;;;;6.88;4.95;;;;;;;22.41;60.26;98873.41;5095715;28;20047;-75
2023/06/16 00:58:52;;;;;;;8.73;5.35;;;;;;;22.72;60.23;98919.91;5095670;28;20058;-76
2023/06/16 01:01:18;;;;;;;7.88;5.03;;;;;;;22.89;60.56;98946.53;5094187;28;20043;-76
2023/06/16 01:03:46;;;;;;;6.13;5.53;;;;;;;22.55;60.62;98889.78;5095397;28;20051;-75
2023/06/16 01:06:21;;;;;;;6.60;5.50;;;;;;;22.65;60.79;98911.28;5095218;28;20026;-75
2023/06/16 01:08:59;;;;;;;6.32;5.50;;;;;;;22.51;60.98;98898.41;5095510;28;20106;-75
2023/06/16 01:11:40;;;;;;;8.20;5.35;;;;;;;22.80;61.06;98940.91;5095819;28;20027;-76
2023/06/16 01:14:15;;;;;;;7.15;5.03;;;;;;;22.42;61.15;98897.34;5095214;28;20070;-75
2023/06/16 01:16:43;;;;;;;8.68;5.97;;;;;;;22.77;61.05;98947.59;5096100;28;20028;-76
2023/06/16 01:19:17;;;;;;;6.70;5.05;;;;;;;22.42;60.93;98897.34;5095534;28;20012;-75
2023/06/16 01:22:12;;;;;;;9.18;5.93;;;;;;;22.69;61.24;98941.97;5094907;28;20505;-75
2023/06/16 01:24:42;;;;;;;6.38;5.63;;;;;;;22.71;61.02;98950.56;5095232;28;20035;-75
2023/06/16 01:27:10;;;;;;;6.60;5.80;;;;;;;22.29;60.81;98891.69;5095225;28;20108;-75
2023/06/16 01:29:37;;;;;;;6.78;6.07;;;;;;;22.31;60.90;98887.69;5095043;28;20047;-75
2023/06/16 01:32:05;;;;;;;8.02;6.40;;;;;;;22.41;61.03;98911.88;5094708;28;20047;-75
2023/06/16 01:34:33;;;;;;;8.57;5.75;;;;;;;22.28;61.00;98882.00;5094548;28;20058;-76
2023/06/16 01:37:00;;;;;;;7.75;6.43;;;;;;;22.45;61.21;98902.19;5094505;28;20024;-75
2023/06/16 01:39:27;;;;;;;8.27;6.45;;;;;;;22.64;61.07;98928.53;5094266;28;20099;-75
2023/06/16 01:41:54;;;;;;;7.25;5.85;;;;;;;22.63;60.70;98927.72;5094619;28;20027;-75
2023/06/16 01:44:20;;;;;;;7.45;5.80;;;;;;;22.61;60.32;98929.06;5094455;28;20024;-75
2023/06/16 01:46:46;;;;;;;7.10;6.40;;;;;;;22.19;60.40;98866.41;5094462;28;20052;-75
2023/06/16 01:49:12;;;;;;;9.60;6.43;;;;;;;22.10;60.54;98862.66;5094341;28;20020;-75
2023/06/16 01:51:38;;;;;;;7.07;5.68;;;;;;;22.49;60.68;98929.34;5093017;28;20149;-76
2023/06/16 01:54:03;;;;;;;7.55;6.00;;;;;;;22.00;60.83;98862.63;5092812;28;20043;-75
2023/06/16 01:56:30;;;;;;;8.18;6.32;;;;;;;22.45;60.75;98928.28;5093993;28;20031;-76
2023/06/16 01:58:55;;;;;;;6.88;6.22;;;;;;;21.99;60.71;98869.06;5094250;28;20016;-73
2023/06/16 02:01:29;;;;;;;7.05;6.07;;;;;;;22.40;60.80;98936.34;5094120;28;20043;-74
2023/06/16 02:04:06;;;;;;;9.93;7.03;;;;;;;22.34;60.80;98943.63;5093858;28;20024;-73
2023/06/16 02:07:02;;;;;;;7.50;6.78;;;;;;;22.09;60.99;98911.31;5093849;28;20017;-74
2023/06/16 02:09:29;;;;;;;6.82;6.05;;;;;;;22.24;61.14;98938.22;5085404;28;20020;-78
2023/06/16 02:11:55;;;;;;;7.00;6.28;;;;;;;21.87;61.04;98872.03;5093831;28;20031;-74
2023/06/16 02:14:21;;;;;;;7.45;6.45;;;;;;;21.93;61.31;98886.28;5093917;28;20020;-76
2023/06/16 02:16:50;;;;;;;7.88;7.05;;;;;;;22.22;61.27;98929.59;5093823;28;20020;-76
2023/06/16 02:19:16;;;;;;;8.20;7.43;;;;;;;22.20;61.42;98945.19;5093886;28;20028;-75
2023/06/16 02:21:42;;;;;;;9.85;7.50;;;;;;;21.95;61.35;98894.88;5093679;28;20097;-75
2023/06/16 02:24:08;;;;;;;8.85;6.93;;;;;;;21.80;61.44;98876.84;5093859;28;20053;-77
2023/06/16 02:26:34;;;;;;;8.75;7.15;;;;;;;21.81;61.56;98891.09;5092305;28;20024;-75
2023/06/16 02:29:00;;;;;;;10.15;7.35;;;;;;;22.17;61.74;98932.28;5092132;28;20553;-75
2023/06/16 02:31:26;;;;;;;9.27;6.97;;;;;;;21.80;61.82;98873.38;5093356;28;20071;-77
2023/06/16 02:33:51;;;;;;;11.32;7.30;;;;;;;22.13;62.00;98929.34;5093183;28;20035;-76
2023/06/16 02:36:18;;;;;;;9.05;7.03;;;;;;;21.89;62.20;98902.13;5093278;28;20024;-76
2023/06/16 02:38:45;;;;;;;7.88;7.07;;;;;;;22.23;61.90;98928.53;5093327;28;20023;-73
2023/06/16 02:41:11;;;;;;;9.40;7.43;;;;;;;22.13;61.67;98929.34;5093407;28;20055;-73
2023/06/16 02:43:36;;;;;;;8.57;6.68;;;;;;;22.22;62.16;98934.97;5093490;28;20077;-74
2023/06/16 02:46:02;;;;;;;8.02;7.25;;;;;;;22.23;62.27;98928.53;5093310;28;20042;-73
2023/06/16 02:48:27;;;;;;;8.05;7.25;;;;;;;21.85;62.24;98878.75;5093194;28;20022;-76
2023/06/16 02:50:53;;;;;;;7.97;7.28;;;;;;;21.85;62.19;98878.75;5093307;28;20093;-75
2023/06/16 02:53:19;;;;;;;10.77;7.00;;;;;;;21.75;61.93;98855.34;5093124;28;20082;-73
2023/06/16 02:55:46;;;;;;;10.60;6.95;;;;;;;22.06;62.11;98907.28;5093240;28;20031;-75
2023/06/16 02:58:14;;;;;;;9.63;7.07;;;;;;;21.76;62.27;98853.47;5092978;28;20123;-75
2023/06/16 03:00:40;;;;;;;11.02;6.68;;;;;;;22.03;62.11;98899.75;5092721;28;20028;-74
2023/06/16 03:03:07;;;;;;;10.27;7.13;;;;;;;22.14;62.24;98922.06;5092483;28;20020;-73
2023/06/16 03:05:33;;;;;;;9.32;7.25;;;;;;;21.71;61.99;98850.78;5093086;28;20034;-76
2023/06/16 03:07:59;;;;;;;10.82;7.53;;;;;;;21.79;62.07;98863.69;5093058;28;20024;-77
2023/06/16 03:10:24;;;;;;;9.00;7.75;;;;;;;21.94;62.26;98893.25;5092652;28;20008;-75
2023/06/16 03:12:50;;;;;;;8.45;7.30;;;;;;;22.08;62.38;98915.06;5093002;28;20064;-76
2023/06/16 03:15:15;;;;;;;11.73;8.05;;;;;;;21.97;62.40;98898.09;5092965;28;20032;-76
2023/06/16 03:17:40;;;;;;;9.95;8.43;;;;;;;21.81;62.45;98891.09;5093113;28;20055;-76
2023/06/16 03:20:07;;;;;;;12.82;7.90;;;;;;;21.67;62.70;98865.81;5092763;28;20048;-75
2023/06/16 03:22:32;;;;;;;13.38;8.07;;;;;;;21.75;62.94;98870.69;5092818;28;20554;-75
2023/06/16 03:25:02;;;;;;;9.68;7.25;;;;;;;22.02;62.88;98914.25;5091539;28;20109;-75
2023/06/16 03:27:29;;;;;;;9.60;8.02;;;;;;;21.84;62.76;98887.88;5092682;28;20020;-75
2023/06/16 03:29:55;;;;;;;9.90;7.50;;;;;;;22.07;62.74;98921.53;5092609;28;20027;-75
2023/06/16 03:32:20;;;;;;;10.98;7.57;;;;;;;22.05;62.90;98924.47;5092646;28;20016;-75
2023/06/16 03:34:46;;;;;;;10.38;8.10;;;;;;;22.04;63.15;98922.06;5092436;28;20107;-75
2023/06/16 03:37:12;;;;;;;9.30;7.57;;;;;;;21.98;63.20;98915.84;5092556;28;20050;-76
2023/06/16 03:39:38;;;;;;;15.40;8.73;;;;;;;22.13;63.16;98926.63;5092423;28;20031;-75
2023/06/16 03:42:03;;;;;;;11.48;7.78;;;;;;;21.80;62.95;98884.13;5092672;28;20095;-75
2023/06/16 03:44:29;;;;;;;11.27;8.27;;;;;;;22.21;63.04;98922.59;5092679;28;20560;-76
2023/06/16 03:46:55;;;;;;;11.63;8.02;;;;;;;22.15;63.16;98911.03;5092381;28;20027;-75
2023/06/16 03:49:20;;;;;;;13.73;8.23;;;;;;;21.75;63.24;98849.19;5092301;28;20016;-76
2023/06/16 03:51:46;;;;;;;11.40;8.18;;;;;;;21.69;63.32;98839.50;5091038;28;20016;-75
2023/06/16 03:54:11;;;;;;;12.70;7.70;;;;;;;22.00;63.42;98889.50;5092373;28;20023;-76
2023/06/16 03:56:37;;;;;;;11.20;8.15;;;;;;;22.12;63.36;98906.22;5090640;28;20020;-75
2023/06/16 03:59:03;;;;;;;14.13;9.30;;;;;;;21.82;63.50;98863.16;5092431;28;20031;-75
2023/06/16 04:01:30;;;;;;;15.02;9.80;;;;;;;22.13;63.57;98902.44;5092199;28;20035;-75
2023/06/16 04:03:55;;;;;;;12.82;9.27;;;;;;;22.08;63.59;98901.63;5091769;28;20035;-75
2023/06/16 04:06:21;;;;;;;13.15;9.45;;;;;;;22.13;63.70;98904.31;5091622;28;20024;-75
2023/06/16 04:08:46;;;;;;;13.00;9.18;;;;;;;21.87;63.68;98865.84;5093910;28;20031;-76
2023/06/16 04:11:13;;;;;;;11.93;9.20;;;;;;;22.21;63.37;98922.59;5094177;28;20058;-75
2023/06/16 04:13:39;;;;;;;14.65;9.18;;;;;;;21.59;63.61;98837.63;5090875;28;20020;-75
2023/06/16 04:16:05;;;;;;;12.50;9.15;;;;;;;22.18;63.25;98926.63;5091772;28;20024;-75
2023/06/16 04:18:30;;;;;;;14.13;9.65;;;;;;;22.19;63.63;98925.56;5091701;28;20024;-75
2023/06/16 04:20:56;;;;;;;15.55;9.00;;;;;;;21.94;63.43;98887.88;5091501;28;20073;-75
2023/06/16 04:23:22;;;;;;;11.82;9.90;;;;;;;21.99;63.32;98890.56;5091867;28;20019;-75
2023/06/16 04:25:47;;;;;;;15.95;10.07;;;;;;;21.93;63.35;98880.09;5092338;28;20024;-75
2023/06/16 04:28:17;;;;;;;15.75;9.20;;;;;;;22.14;63.56;98906.75;5092177;28;20028;-75
2023/06/16 04:30:43;;;;;;;15.80;9.95;;;;;;;22.23;63.63;98922.34;5092249;28;20020;-76
2023/06/16 04:33:09;;;;;;;13.93;10.27;;;;;;;21.78;63.68;98849.44;5092095;28;20057;-77
2023/06/16 04:35:35;;;;;;;14.63;10.13;;;;;;;22.24;63.96;98923.94;5091994;28;20419;-76
2023/06/16 04:38:01;;;;;;;13.40;9.70;;;;;;;22.09;64.15;98893.31;5091876;28;20041;-75
2023/06/16 04:40:27;;;;;;;12.43;9.40;;;;;;;22.28;63.89;98916.97;5090209;28;20020;-76
2023/06/16 04:42:53;;;;;;;13.30;9.80;;;;;;;22.29;63.97;98921.25;5091379;28;20081;-75
2023/06/16 04:45:20;;;;;;;13.25;9.77;;;;;;;22.33;63.73;98915.09;5091280;28;20023;-76
2023/06/16 04:47:46;;;;;;;13.27;9.70;;;;;;;21.95;63.72;98857.25;5091299;28;20020;-75
2023/06/16 04:50:12;;;;;;;14.88;10.13;;;;;;;22.36;63.85;98925.31;5091308;28;20024;-76
2023/06/16 04:52:38;;;;;;;13.82;9.13;;;;;;;22.41;63.66;98916.44;5091519;28;20494;-75
2023/06/16 04:55:04;;;;;;;14.07;10.60;;;;;;;22.12;63.51;98870.44;5089982;28;20020;-75
2023/06/16 04:57:31;;;;;;;12.98;10.63;;;;;;;22.42;63.51;98916.19;5091088;28;20054;-76
2023/06/16 04:59:57;;;;;;;13.55;10.43;;;;;;;22.29;63.36;98897.06;5091012;28;20028;-76
2023/06/16 05:02:23;;;;;;;14.77;11.90;;;;;;;21.96;63.59;98876.88;5091128;28;20031;-75
2023/06/16 05:04:48;;;;;;;19.52;11.52;;;;;;;21.82;63.50;98847.84;5091539;28;20024;-77
2023/06/16 05:07:14;;;;;;;18.20;11.68;;;;;;;22.07;63.42;98881.19;5091336;28;20028;-76
2023/06/16 05:09:39;;;;;;;15.30;11.18;;;;;;;21.99;63.42;98870.97;5091182;28;20428;-76
2023/06/16 05:12:06;;;;;;;16.70;11.38;;;;;;;22.19;63.33;98893.31;5091055;28;20070;-75
2023/06/16 05:14:32;;;;;;;16.52;11.10;;;;;;;22.43;63.31;98925.84;5091129;28;20512;-75
2023/06/16 05:16:58;;;;;;;17.33;11.07;;;;;;;22.17;62.97;98867.75;5090948;28;20020;-76
2023/06/16 05:19:23;;;;;;;16.95;11.10;;;;;;;22.51;62.76;98916.44;5090856;28;20404;-75
2023/06/16 05:21:48;;;;;;;19.02;11.73;;;;;;;22.59;62.76;98918.56;5091069;28;20028;-76
2023/06/16 05:24:14;;;;;;;17.17;12.38;;;;;;;22.62;62.56;98914.53;5091366;28;20103;-75
2023/06/16 05:26:41;;;;;;;14.15;10.88;;;;;;;22.29;62.36;98859.41;5094949;28;20021;-75
2023/06/16 05:29:06;;;;;;;14.35;10.13;;;;;;;22.77;62.29;98909.94;5094716;28;20026;-77
2023/06/16 05:31:33;;;;;;;16.10;11.65;;;;;;;22.69;61.95;98875.50;5094656;28;20107;-75
2023/06/16 05:33:59;;;;;;;15.95;10.38;;;;;;;22.88;61.88;98904.53;5093320;28;20020;-76
2023/06/16 05:36:24;;;;;;;11.63;10.43;;;;;;;22.91;61.71;98904.00;5093461;28;20026;-75
2023/06/16 05:38:51;;;;;;;16.02;10.93;;;;;;;22.97;61.85;98919.84;5094424;28;20046;-75
2023/06/16 05:41:17;;;;;;;16.05;12.10;;;;;;;22.49;61.66;98844.06;5094428;28;20024;-75
2023/06/16 05:43:42;;;;;;;21.48;16.13;;;;;;;23.01;61.87;98917.44;5094310;28;20024;-75
2023/06/16 05:46:07;;;;;;;12.25;11.02;;;;;;;22.58;61.85;98867.72;5094326;28;20023;-76
2023/06/16 05:48:33;;;;;;;12.90;10.38;;;;;;;23.00;61.75;98923.88;5094286;28;20016;-76
2023/06/16 05:50:59;;;;;;;13.30;9.77;;;;;;;22.90;61.49;98903.19;5094368;28;20031;-75
2023/06/16 05:53:24;;;;;;;11.95;9.85;;;;;;;22.57;61.51;98844.59;5092944;28;20113;-75
2023/06/16 05:55:50;;;;;;;12.05;8.95;;;;;;;22.54;61.09;98850.50;5094409;28;20106;-74
2023/06/16 05:58:15;;;;;;;11.70;9.38;;;;;;;22.49;60.54;98832.50;5093952;28;20581;-75
2023/06/16 06:00:40;;;;;;;16.63;9.85;;;;;;;23.03;60.25;98909.88;5094082;28;20016;-75
2023/06/16 06:03:06;;;;;;;13.07;10.30;;;;;;;22.70;60.21;98850.19;5094099;28;20024;-74
2023/06/16 06:05:31;;;;;;;11.32;9.45;;;;;;;22.76;59.89;98843.72;5094028;28;20016;-75
2023/06/16 06:07:57;;;;;;;12.73;9.63;;;;;;;22.97;59.80;98857.94;5088952;28;20039;-76
2023/06/16 06:10:22;;;;;;;12.38;10.45;;;;;;;23.00;59.66;98849.31;5090164;28;20019;-76
2023/06/16 06:12:48;;;;;;;12.95;11.50;;;;;;;23.12;59.69;98870.56;5083812;28;20078;-75
2023/06/16 06:15:13;;;;;;;16.02;14.10;;;;;;;23.11;59.13;98858.97;5070354;28;20527;-75
2023/06/16 06:17:39;;;;;;;15.05;11.50;;;;;;;23.05;59.08;98843.94;5090090;28;20035;-75
2023/06/16 06:20:05;;;;;;;14.75;11.25;;;;;;;23.08;58.77;98834.50;5091261;28;20032;-75
2023/06/16 06:22:32;;;;;;;11.88;9.98;;;;;;;23.46;58.76;98893.00;5066962;28;20028;-75
2023/06/16 06:24:59;;;;;;;11.30;8.85;;;;;;;23.20;58.14;98866.47;5071097;28;20052;-76
2023/06/16 06:27:24;;;;;;;12.57;10.55;;;;;;;23.65;57.87;98911.25;5073157;28;20094;-75
2023/06/16 06:29:50;;;;;;;13.95;9.55;;;;;;;23.69;57.83;98906.91;5071639;28;20020;-76
2023/06/16 06:32:15;;;;;;;11.23;9.02;;;;;;;23.84;57.19;98914.94;5077284;28;20492;-75
2023/06/16 06:34:40;;;;;;;9.45;8.40;;;;;;;23.81;56.09;98896.63;5071629;28;20075;-76
2023/06/16 06:37:06;;;;;;;9.35;8.13;;;;;;;23.87;55.59;98890.13;5069031;28;20039;-74
2023/06/16 06:39:31;;;;;;;10.48;8.65;;;;;;;23.60;55.45;98838.53;5071180;28;20052;-76
2023/06/16 06:41:57;;;;;;;14.10;11.00;;;;;;;23.89;55.31;98877.16;5069987;28;20016;-75
2023/06/16 06:44:22;;;;;;;16.55;13.38;;;;;;;23.72;54.64;98844.38;5074756;28;20042;-76
2023/06/16 06:46:48;;;;;;;22.25;19.67;;;;;;;24.27;54.53;98921.38;5072330;28;20035;-73
2023/06/16 06:49:14;;;;;;;13.80;12.13;;;;;;;23.83;54.53;98853.22;5072618;28;20417;-74
2023/06/16 06:51:40;;;;;;;11.15;9.90;;;;;;;23.94;53.98;98855.56;5089707;28;20102;-76
2023/06/16 06:54:07;;;;;;;10.50;9.20;;;;;;;23.99;53.53;98857.41;5092978;28;20031;-75
2023/06/16 06:56:33;;;;;;;9.50;8.10;;;;;;;24.37;53.20;98918.59;5092926;28;20100;-75
2023/06/16 06:58:58;;;;;;;9.95;8.90;;;;;;;24.41;53.48;98918.84;5091154;28;20484;-75
2023/06/16 07:01:24;;;;;;;11.93;9.68;;;;;;;24.48;53.66;98918.50;5092384;28;20381;-76
2023/06/16 07:03:49;;;;;;;12.80;10.35;;;;;;;24.23;52.57;98865.56;5085878;28;20038;-77
2023/06/16 07:06:14;;;;;;;14.07;12.38;;;;;;;24.19;52.49;98859.91;5074116;28;20061;-75
2023/06/16 07:08:40;;;;;;;20.48;18.25;;;;;;;24.43;52.15;98892.38;5072426;28;20390;-75
2023/06/16 07:11:05;;;;;;;15.63;13.85;;;;;;;24.35;51.82;98880.31;5072035;28;20116;-74
2023/06/16 07:13:31;;;;;;;14.45;10.05;;;;;;;24.25;51.66;98868.78;5071758;28;20052;-76
2023/06/16 07:15:56;;;;;;;14.13;9.77;;;;;;;24.57;51.30;98903.34;5071453;28;20032;-76
2023/06/16 07:18:22;;;;;;;11.88;9.68;;;;;;;24.31;51.39;98860.38;5069752;28;20081;-75
2023/06/16 07:20:47;;;;;;;12.73;10.73;;;;;;;24.51;50.40;98888.25;5076295;28;20059;-73
2023/06/16 07:23:12;;;;;;;10.32;8.50;;;;;;;24.13;50.17;98846.75;5094230;28;20020;-75
2023/06/16 07:25:38;;;;;;;11.27;7.30;;;;;;;24.37;49.53;98874.63;5094431;28;20020;-75
2023/06/16 07:28:05;;;;;;;12.38;9.18;;;;;;;24.67;50.22;98922.94;5075767;28;20024;-76
2023/06/16 07:30:31;;;;;;;17.50;12.98;;;;;;;24.27;50.99;98855.84;5071383;28;20532;-76
2023/06/16 07:32:56;;;;;;;14.43;12.93;;;;;;;24.76;51.29;98927.72;5071851;28;20107;-73
2023/06/16 07:35:22;;;;;;;10.50;8.38;;;;;;;23.92;49.76;98768.75;5070660;28;20020;-76
2023/06/16 07:37:48;;;;;;;17.80;11.70;;;;;;;24.85;50.19;98921.41;5072411;28;20161;-73
2023/06/16 07:40:13;;;;;;;18.58;12.95;;;;;;;24.45;50.63;98851.59;5071377;28;20406;-75
2023/06/16 07:42:42;;;;;;;16.13;12.90;;;;;;;24.44;50.89;98844.59;5072759;28;20024;-76
2023/06/16 07:45:08;;;;;;;14.48;10.88;;;;;;;24.84;51.14;98902.78;5070744;28;20043;-76
2023/06/16 07:47:33;;;;;;;12.57;10.10;;;;;;;24.88;50.83;98899.22;5068773;28;20021;-76
2023/06/16 07:49:59;;;;;;;14.70;10.38;;;;;;;25.03;50.36;98907.19;5083854;28;20130;-76
2023/06/16 07:52:25;;;;;;;20.58;17.67;;;;;;;25.07;50.59;98912.00;5069602;28;20551;-76
2023/06/16 07:54:50;;;;;;;12.48;10.77;;;;;;;24.97;50.29;98902.09;5071683;28;20025;-76
2023/06/16 07:57:16;;;;;;;15.20;12.68;;;;;;;24.96;50.83;98892.38;5070243;28;20044;-75
2023/06/16 07:59:41;;;;;;;15.32;11.68;;;;;;;24.54;51.12;98839.94;5073416;28;20024;-76
2023/06/16 08:02:07;;;;;;;15.57;12.68;;;;;;;24.43;50.85;98824.91;5070410;28;20021;-75
2023/06/16 08:04:32;;;;;;;13.00;11.23;;;;;;;24.94;51.23;98899.97;5070928;28;20485;-76
2023/06/16 08:06:58;;;;;;;13.57;11.05;;;;;;;25.05;51.03;98906.88;5072298;28;20020;-76
2023/06/16 08:09:23;;;;;;;17.15;13.55;;;;;;;25.01;50.71;98895.84;5069481;28;20771;-76
2023/06/16 08:11:49;;;;;;;15.85;11.43;;;;;;;24.70;50.91;98854.06;5070145;28;20485;-75
2023/06/16 08:14:15;;;;;;;14.20;10.40;;;;;;;24.71;50.86;98840.28;5071031;28;20029;-76
2023/06/16 08:16:40;;;;;;;13.88;10.45;;;;;;;25.12;50.80;98909.25;5069336;28;20028;-77
2023/06/16 08:19:08;;;;;;;14.32;9.73;;;;;;;25.09;50.69;98910.63;5071046;28;20081;-76
2023/06/16 08:21:34;;;;;;;9.80;8.60;;;;;;;25.10;50.76;98914.13;5072813;28;20493;-75
2023/06/16 08:24:01;;;;;;;10.85;9.75;;;;;;;24.90;50.51;98869.22;5071049;28;20510;-75
2023/06/16 08:26:27;;;;;;;12.93;8.75;;;;;;;25.08;50.31;98895.50;5070677;28;20058;-75
2023/06/16 08:28:53;;;;;;;11.38;9.43;;;;;;;24.83;50.99;98849.88;5067129;28;20554;-75
2023/06/16 08:31:18;;;;;;;10.48;8.80;;;;;;;25.23;50.78;98908.81;5071615;28;20024;-73
2023/06/16 08:33:44;;;;;;;10.73;9.68;;;;;;;24.99;51.00;98875.63;5065859;28;20028;-76
2023/06/16 08:36:10;;;;;;;12.57;8.82;;;;;;;24.95;50.79;98859.16;5073803;28;20027;-75
2023/06/16 08:38:36;;;;;;;11.10;9.40;;;;;;;25.38;51.05;98929.47;5072234;28;21088;-76
2023/06/16 08:41:06;;;;;;;12.68;9.75;;;;;;;25.46;51.06;98926.13;5073597;28;20157;-73
2023/06/16 08:43:35;;;;;;;10.35;9.35;;;;;;;25.31;50.81;98885.78;5070290;28;20025;-74
2023/06/16 08:46:03;;;;;;;9.35;8.38;;;;;;;25.02;50.50;98829.94;5068005;28;20035;-76
2023/06/16 08:48:28;;;;;;;11.15;9.00;;;;;;;25.47;50.14;98867.47;5062353;28;20024;-74
2023/06/16 08:50:58;;;;;;;13.27;9.07;;;;;;;25.69;49.95;98862.31;5065871;28;20416;-76
2023/06/16 08:53:25;;;;;;;9.32;8.30;;;;;;;25.49;49.62;98847.16;5069154;28;20067;-76
2023/06/16 08:55:51;;;;;;;10.32;9.32;;;;;;;25.98;49.71;98913.50;5068633;28;20493;-76
2023/06/16 08:58:20;;;;;;;12.50;8.63;;;;;;;25.77;49.65;98858.94;5067589;28;20119;-75
2023/06/16 09:00:46;;;;;;;9.90;8.98;;;;;;;26.31;49.83;98908.94;5079394;28;20129;-77
2023/06/16 09:03:13;;;;;;;11.52;9.98;;;;;;;26.21;49.08;98839.56;5071425;28;20424;-75
2023/06/16 09:05:38;;;;;;;12.35;10.80;;;;;;;26.46;48.50;98851.06;5071473;28;20517;-76
2023/06/16 09:08:05;;;;;;;8.45;7.55;;;;;;;26.68;47.81;98882.88;5069542;28;20032;-77
2023/06/16 09:10:31;;;;;;;8.43;7.35;;;;;;;26.34;47.90;98856.16;5067515;28;20021;-77
2023/06/16 09:13:00;;;;;;;10.77;7.55;;;;;;;26.59;47.82;98894.41;5070302;28;20051;-76
2023/06/16 09:15:25;;;;;;;9.90;6.40;;;;;;;26.34;47.49;98838.00;5073856;28;20023;-76
2023/06/16 09:18:11;;;;;;;8.45;5.75;;;;;;;26.77;46.52;98891.94;5072427;28;20103;-77
2023/06/16 09:20:41;;;;;;;9.60;7.38;;;;;;;26.82;46.59;98891.84;5073830;28;20523;-76
2023/06/16 09:23:08;;;;;;;8.38;6.82;;;;;;;26.74;46.33;98892.50;5070301;28;20028;-76
2023/06/16 09:25:34;;;;;;;7.07;5.70;;;;;;;26.28;46.85;98831.06;5064784;28;20016;-76
2023/06/16 09:28:09;;;;;;;7.68;6.90;;;;;;;26.42;46.76;98847.34;5068724;28;20151;-76
2023/06/16 09:30:35;;;;;;;7.15;5.95;;;;;;;26.55;46.95;98879.06;5067177;28;20139;-76
2023/06/16 09:33:01;;;;;;;7.10;6.43;;;;;;;26.02;46.84;98806.34;5075528;28;20096;-76
2023/06/16 09:35:29;;;;;;;8.38;7.43;;;;;;;26.52;47.00;98885.88;5076208;28;20034;-76
2023/06/16 09:37:56;;;;;;;8.57;6.45;;;;;;;26.38;46.65;98832.81;5092788;28;20054;-75
2023/06/16 09:40:27;;;;;;;7.47;6.72;;;;;;;26.76;46.24;98869.47;5071670;28;20029;-75
2023/06/16 09:42:57;;;;;;;6.60;6.00;;;;;;;26.83;46.38;98856.31;5072421;28;20024;-75
2023/06/16 09:45:35;;;;;;;8.10;6.78;;;;;;;26.91;46.36;98871.88;5079840;28;20535;-75
2023/06/16 09:48:05;;;;;;;11.82;6.80;;;;;;;26.64;46.04;98830.41;5067691;28;20077;-76
2023/06/16 09:50:31;;;;;;;9.70;8.70;;;;;;;26.46;46.63;98816.66;5072375;28;20024;-75
2023/06/16 09:52:57;;;;;;;8.23;7.13;;;;;;;26.50;46.78;98822.28;5071266;28;20024;-76
2023/06/16 09:55:27;;;;;;;9.43;7.38;;;;;;;26.54;46.77;98831.41;5070644;28;20103;-75
2023/06/16 09:57:53;;;;;;;7.05;6.43;;;;;;;26.32;47.38;98815.81;5074564;28;20052;-75
2023/06/16 10:00:19;;;;;;;7.22;6.53;;;;;;;26.21;47.20;98803.59;5066496;28;20523;-75
2023/06/16 10:02:47;;;;;;;7.50;6.72;;;;;;;26.50;47.65;98844.75;5069495;28;20115;-75
2023/06/16 10:05:16;;;;;;;8.18;7.32;;;;;;;26.41;47.95;98824.88;5071889;28;20052;-75
2023/06/16 10:08:04;;;;;;;9.20;7.05;;;;;;;26.38;48.58;98839.03;5073017;28;20512;-75
2023/06/16 10:10:32;;;;;;;10.07;8.18;;;;;;;26.28;48.65;98839.19;5065764;28;20021;-75
2023/06/16 10:13:03;;;;;;;9.73;8.63;;;;;;;26.32;48.96;98832.06;5076190;28;20020;-75
2023/06/16 10:15:34;;;;;;;9.75;8.75;;;;;;;26.25;49.43;98824.34;5072923;28;20033;-75
2023/06/16 10:18:04;;;;;;;9.50;7.90;;;;;;;26.18;49.56;98834.75;5075975;28;20028;-76
2023/06/16 10:20:34;;;;;;;13.38;8.93;;;;;;;25.69;49.64;98767.66;5078361;28;20114;-75
2023/06/16 10:23:00;;;;;;;11.07;8.52;;;;;;;25.60;49.74;98755.91;5074910;28;20421;-76
2023/06/16 10:25:26;;;;;;;12.45;9.40;;;;;;;25.86;50.23;98804.97;5073847;28;20056;-74
2023/06/16 10:27:53;;;;;;;12.05;9.82;;;;;;;25.65;50.54;98764.75;5074709;28;20069;-77
2023/06/16 10:30:19;;;;;;;7.72;7.03;;;;;;;25.55;50.74;98747.88;5072708;28;20056;-75
2023/06/16 10:32:49;;;;;;;9.75;8.10;;;;;;;26.00;50.63;98813.13;5072998;28;20035;-75
2023/06/16 10:35:16;;;;;;;11.07;8.40;;;;;;;25.72;51.29;98764.38;5072561;28;20035;-75
2023/06/16 10:37:42;;;;;;;8.40;7.50;;;;;;;25.85;51.04;98796.06;5079050;28;20477;-75
2023/06/16 10:40:12;;;;;;;9.93;7.55;;;;;;;25.40;51.28;98721.91;5072191;28;20055;-74
2023/06/16 10:42:39;;;;;;;10.07;9.05;;;;;;;25.59;51.40;98755.09;5071825;28;20420;-75
2023/06/16 10:45:28;;;;;;;10.57;8.13;;;;;;;25.94;51.15;98805.09;5068775;28;20028;-75
2023/06/16 10:48:03;;;;;;;10.40;7.28;;;;;;;25.91;51.61;98784.06;5070189;28;20021;-75
2023/06/16 10:50:38;;;;;;;8.05;7.07;;;;;;;25.92;51.82;98779.44;5064383;28;20481;-76
2023/06/16 10:53:10;;;;;;;8.90;7.35;;;;;;;25.91;50.88;98780.56;5072342;28;20032;-76
2023/06/16 10:55:39;;;;;;;9.27;8.38;;;;;;;25.70;51.48;98747.66;5072676;28;20103;-76
2023/06/16 10:58:26;;;;;;;15.93;8.15;;;;;;;25.87;51.25;98782.25;5071303;28;20044;-74
2023/06/16 11:01:21;;;;;;;8.82;6.63;;;;;;;25.82;51.32;98780.44;5070465;28;20056;-75
2023/06/16 11:03:46;;;;;;;7.97;6.85;;;;;;;25.42;51.05;98746.72;5074034;28;20050;-76
2023/06/16 11:06:12;;;;;;;12.65;9.95;;;;;;;25.46;51.10;98768.56;5068476;28;20032;-76
2023/06/16 11:08:54;;;;;;;7.93;7.13;;;;;;;25.95;51.14;98809.41;5074155;28;20094;-75
2023/06/16 11:11:20;;;;;;;12.40;10.18;;;;;;;25.61;50.88;98749.38;5069348;28;20150;-77
2023/06/16 11:13:46;;;;;;;10.73;9.32;;;;;;;25.89;50.63;98774.63;5069235;28;20123;-76
2023/06/16 11:16:12;;;;;;;11.32;8.90;;;;;;;26.22;50.28;98822.22;5069794;28;20413;-75
2023/06/16 11:18:37;;;;;;;15.18;11.13;;;;;;;26.13;50.20;98804.28;5062083;28;20044;-75
2023/06/16 11:21:06;;;;;;;7.88;6.03;;;;;;;25.84;49.44;98745.78;5070211;28;20034;-76
2023/06/16 11:23:32;;;;;;;7.20;6.50;;;;;;;26.39;49.50;98826.28;5071684;28;20102;-76
2023/06/16 11:26:09;;;;;;;6.88;6.07;;;;;;;26.47;49.00;98844.53;5068916;28;20485;-75